createdAt,value
2022-10-06T00:00:29.008Z,9.93
2022-10-06T00:05:31.316Z,9.49
2022-10-06T00:10:34.047Z,9.43
2022-10-06T00:15:36.274Z,9.43
2022-10-06T00:20:38.380Z,9.46
2022-10-06T00:25:40.470Z,9.92
2022-10-06T00:30:43.133Z,9.55
2022-10-06T00:35:45.723Z,9.51
2022-10-06T00:40:50.324Z,9.53
2022-10-06T00:45:52.455Z,9.45
2022-10-06T00:50:58.109Z,9.47
2022-10-06T00:56:00.242Z,9.43
2022-10-06T01:01:03.241Z,9.87
2022-10-06T01:06:05.829Z,9.44
2022-10-06T01:11:14.358Z,9.58
2022-10-06T01:16:23.283Z,9.58
2022-10-06T01:21:44.180Z,9.67
2022-10-06T01:26:50.830Z,9.72
2022-10-06T01:31:53.122Z,9.71
2022-10-06T01:36:55.955Z,9.76
2022-10-06T01:41:58.233Z,9.80
2022-10-06T01:47:00.461Z,9.78
2022-10-06T01:52:03.075Z,9.79
2022-10-06T01:57:06.958Z,9.82
2022-10-06T02:02:09.161Z,9.74
2022-10-06T02:07:11.611Z,9.83
2022-10-06T02:12:18.936Z,9.87
2022-10-06T02:17:21.247Z,9.90
2022-10-06T02:22:23.321Z,9.89
2022-10-06T02:27:26.107Z,9.92
2022-10-06T02:32:36.963Z,10.10
2022-10-06T02:37:40.539Z,10.02
2022-10-06T02:42:45.768Z,10.01
2022-10-06T02:47:54.200Z,9.99
2022-10-06T02:52:57.135Z,10.02
2022-10-06T02:58:00.324Z,10.05
2022-10-06T03:03:02.568Z,10.03
2022-10-06T03:08:04.802Z,9.96
2022-10-06T03:13:07.118Z,9.91
2022-10-06T03:18:10.194Z,9.85
2022-10-06T03:23:13.634Z,9.83
2022-10-06T03:28:17.173Z,9.82
2022-10-06T03:33:19.592Z,9.86
2022-10-06T03:38:22.663Z,9.82
2022-10-06T03:43:25.148Z,9.88
2022-10-06T03:48:32.282Z,9.95
2022-10-06T03:53:36.267Z,9.87
2022-10-06T03:58:41.588Z,9.93
2022-10-06T04:03:44.403Z,9.98
2022-10-06T04:08:48.750Z,10.11
2022-10-06T04:14:02.809Z,10.29
2022-10-06T04:19:10.063Z,10.32
2022-10-06T04:24:17.284Z,10.42
2022-10-06T04:29:21.518Z,10.50
2022-10-06T04:34:28.620Z,10.64
2022-10-06T04:39:31.184Z,11.05
2022-10-06T04:44:33.494Z,11.33
2022-10-06T04:49:37.611Z,11.34
2022-10-06T04:54:40.414Z,11.26
2022-10-06T05:00:07.851Z,11.08
2022-10-06T05:05:13.174Z,11.10
2022-10-06T05:10:15.506Z,11.09
2022-10-06T05:15:18.132Z,11.16
2022-10-06T05:20:23.912Z,11.20
2022-10-06T05:25:27.086Z,11.30
2022-10-06T05:30:29.362Z,11.33
2022-10-06T05:35:32.008Z,11.33
2022-10-06T05:40:34.352Z,11.38
2022-10-06T05:45:36.962Z,11.26
2022-10-06T05:50:39.179Z,11.36
2022-10-06T05:55:41.426Z,11.37
2022-10-06T06:00:43.741Z,11.40
2022-10-06T06:05:46.199Z,11.46
2022-10-06T06:10:48.508Z,11.49
2022-10-06T06:16:04.296Z,11.66
2022-10-06T06:21:09.851Z,11.93
2022-10-06T06:26:38.635Z,12.24
2022-10-06T06:31:44.198Z,11.96
2022-10-06T06:36:53.577Z,12.17
2022-10-06T06:41:56.019Z,12.15
2022-10-06T06:47:13.367Z,12.15
2022-10-06T06:52:15.838Z,12.21
2022-10-06T06:57:18.326Z,12.37
2022-10-06T07:02:29.914Z,12.63
2022-10-06T07:07:32.805Z,12.82
2022-10-06T07:12:46.319Z,12.95
2022-10-06T07:18:07.195Z,12.99
2022-10-06T07:23:39.402Z,12.88
2022-10-06T07:28:46.385Z,12.62
2022-10-06T07:33:51.170Z,12.68
2022-10-06T07:38:53.633Z,12.74
2022-10-06T07:43:55.857Z,12.95
2022-10-06T07:49:00.315Z,13.11
2022-10-06T07:54:02.949Z,12.94
2022-10-06T07:59:09.653Z,12.92
2022-10-06T08:04:13.211Z,12.81
2022-10-06T08:09:15.287Z,12.81
2022-10-06T08:14:17.187Z,13.35
2022-10-06T08:19:19.772Z,12.85
2022-10-06T08:24:21.864Z,12.76
2022-10-06T08:29:23.792Z,13.28
2022-10-06T08:34:25.851Z,12.90
2022-10-06T08:39:31.036Z,12.89
2022-10-06T08:44:44.627Z,13.12
2022-10-06T08:49:48.526Z,13.05
2022-10-06T08:55:14.547Z,13.13
2022-10-06T09:00:21.273Z,12.88
2022-10-06T09:05:28.522Z,12.84
2022-10-06T09:10:33.441Z,12.71
2022-10-06T09:15:46.755Z,12.71
2022-10-06T09:21:09.853Z,12.95
2022-10-06T09:26:14.511Z,12.87
2022-10-06T09:31:32.046Z,12.87
2022-10-06T09:37:01.553Z,12.93
2022-10-06T09:42:11.943Z,12.77
2022-10-06T09:47:29.099Z,13.01
2022-10-06T09:52:31.260Z,12.95
2022-10-06T09:57:33.896Z,12.93
2022-10-06T10:02:37.383Z,13.01
2022-10-06T10:07:39.572Z,13.02
2022-10-06T10:12:49.336Z,13.53
2022-10-06T10:18:04.147Z,13.19
2022-10-06T10:23:17.455Z,13.29
2022-10-06T10:28:22.511Z,13.44
2022-10-06T10:34:05.149Z,13.69
2022-10-06T10:39:27.236Z,14.11
2022-10-06T10:44:37.420Z,14.59
2022-10-06T10:49:43.440Z,14.71
2022-10-06T10:55:26.828Z,14.88
2022-10-06T11:00:31.501Z,14.82
2022-10-06T11:05:46.120Z,14.75
2022-10-06T11:10:52.956Z,14.41
2022-10-06T11:15:58.128Z,14.36
2022-10-06T11:21:10.017Z,14.24
2022-10-06T11:26:38.219Z,14.14
2022-10-06T11:32:00.202Z,14.11
2022-10-06T11:37:32.031Z,14.21
2022-10-06T11:42:49.296Z,14.34
2022-10-06T11:48:19.336Z,14.42
2022-10-06T11:53:37.264Z,14.28
2022-10-06T11:58:51.692Z,14.35
2022-10-06T12:04:21.952Z,14.36
2022-10-06T12:09:26.254Z,14.19
2022-10-06T12:20:01.460Z,14.39
2022-10-06T12:25:25.219Z,14.43
2022-10-06T12:30:52.327Z,14.45
2022-10-06T12:36:02.353Z,14.33
2022-10-06T12:41:09.749Z,14.26
2022-10-06T12:46:16.375Z,14.55
2022-10-06T12:51:44.599Z,14.74
2022-10-06T12:57:20.224Z,14.76
2022-10-06T13:02:24.033Z,14.41
2022-10-06T13:07:28.971Z,14.36
2022-10-06T13:12:36.955Z,14.43
2022-10-06T13:17:51.919Z,14.51
2022-10-06T13:23:03.210Z,14.38
2022-10-06T13:28:20.489Z,14.26
2022-10-06T13:33:25.477Z,14.06
2022-10-06T13:38:31.855Z,13.87
2022-10-06T13:43:40.312Z,14.02
2022-10-06T13:48:51.078Z,14.07
2022-10-06T13:54:21.390Z,14.02
2022-10-06T13:59:31.991Z,14.41
2022-10-06T14:04:36.047Z,13.95
2022-10-06T14:09:42.931Z,13.85
2022-10-06T14:14:53.146Z,13.89
2022-10-06T14:19:55.241Z,13.78
2022-10-06T14:24:57.295Z,13.78
2022-10-06T14:29:59.581Z,13.74
2022-10-06T14:35:02.550Z,13.73
2022-10-06T14:40:10.143Z,13.59
2022-10-06T14:45:14.227Z,13.62
2022-10-06T14:50:16.447Z,13.47
2022-10-06T14:55:18.900Z,13.56
2022-10-06T15:00:21.794Z,13.58
2022-10-06T15:05:24.103Z,13.62
2022-10-06T15:10:26.975Z,13.56
2022-10-06T15:15:33.848Z,13.55
2022-10-06T15:20:36.004Z,13.58
2022-10-06T15:25:56.601Z,14.04
2022-10-06T15:30:58.757Z,13.61
2022-10-06T15:36:19.056Z,13.76
2022-10-06T15:41:22.226Z,13.61
2022-10-06T15:46:40.108Z,13.73
2022-10-06T15:51:48.913Z,13.60
2022-10-06T15:56:56.252Z,13.58
2022-10-06T16:02:05.193Z,13.55
2022-10-06T16:07:12.858Z,13.49
2022-10-06T16:12:17.913Z,13.54
2022-10-06T16:17:20.590Z,13.51
2022-10-06T16:22:22.672Z,13.48
2022-10-06T16:27:24.585Z,13.91
2022-10-06T16:32:26.644Z,13.54
2022-10-06T16:37:28.789Z,13.88
2022-10-06T16:42:30.957Z,13.47
2022-10-06T16:47:33.251Z,13.43
2022-10-06T16:52:35.709Z,13.39
2022-10-06T16:57:37.901Z,13.43
2022-10-06T17:02:41.159Z,13.34
2022-10-06T17:07:43.837Z,13.48
2022-10-06T17:12:46.099Z,13.53
2022-10-06T17:17:48.208Z,13.49
2022-10-06T17:22:50.452Z,13.56
2022-10-06T17:27:52.658Z,13.55
2022-10-06T17:32:55.225Z,13.54
2022-10-06T17:37:59.264Z,13.51
2022-10-06T17:43:01.466Z,13.47
2022-10-06T17:48:03.674Z,13.54
2022-10-06T17:53:05.811Z,13.54
2022-10-06T17:58:08.631Z,13.55
2022-10-06T18:03:11.166Z,13.48
2022-10-06T18:08:13.515Z,13.50
2022-10-06T18:13:15.997Z,13.36
2022-10-06T18:18:25.286Z,13.48
2022-10-06T18:23:27.605Z,13.51
2022-10-06T18:28:29.771Z,13.47
2022-10-06T18:38:55.394Z,13.88
2022-10-06T18:43:58.625Z,13.31
2022-10-06T18:49:11.109Z,13.28
2022-10-06T18:54:16.592Z,13.31
2022-10-06T18:59:22.846Z,13.32
2022-10-06T19:04:25.039Z,13.31
2022-10-06T19:09:27.604Z,13.26
2022-10-06T19:14:35.421Z,13.31
2022-10-06T19:19:37.551Z,13.26
2022-10-06T19:24:42.140Z,13.23
2022-10-06T19:29:46.921Z,13.34
2022-10-06T19:34:49.112Z,13.28
2022-10-06T19:39:51.176Z,13.27
2022-10-06T19:44:53.765Z,13.25
2022-10-06T19:50:00.834Z,13.69
2022-10-06T19:55:05.481Z,13.19
2022-10-06T20:00:08.870Z,13.22
2022-10-06T20:05:17.531Z,13.24
2022-10-06T20:10:19.658Z,13.26
2022-10-06T20:15:22.682Z,13.22
2022-10-06T20:20:24.791Z,13.20
2022-10-06T20:25:26.743Z,13.70
2022-10-06T20:30:29.583Z,13.34
2022-10-06T20:35:33.224Z,13.36
2022-10-06T20:40:49.245Z,13.38
2022-10-06T20:45:54.168Z,13.34
2022-10-06T20:50:56.455Z,13.28
2022-10-06T20:56:00.282Z,13.26
2022-10-06T21:01:08.302Z,13.29
2022-10-06T21:06:14.511Z,13.27
2022-10-06T21:11:19.390Z,13.30
2022-10-06T21:16:32.003Z,13.27
2022-10-06T21:21:35.365Z,13.16
2022-10-06T21:26:38.920Z,13.19
2022-10-06T21:31:41.910Z,13.13
2022-10-06T21:36:44.450Z,13.11
2022-10-06T21:41:46.589Z,13.05
2022-10-06T21:46:51.409Z,13.12
2022-10-06T21:51:55.705Z,13.11
2022-10-06T21:56:59.143Z,13.05
2022-10-06T22:02:01.511Z,13.03
2022-10-06T22:07:03.837Z,13.03
2022-10-06T22:12:05.997Z,13.13
2022-10-06T22:17:08.317Z,13.12
2022-10-06T22:22:10.556Z,13.14
2022-10-06T22:27:12.693Z,13.14
2022-10-06T22:32:14.800Z,13.16
2022-10-06T22:37:16.734Z,13.60
2022-10-06T22:42:18.871Z,13.22
2022-10-06T22:47:21.023Z,13.24
2022-10-06T22:52:23.152Z,13.23
2022-10-06T22:57:25.301Z,13.26
2022-10-06T23:02:27.474Z,13.26
2022-10-06T23:07:29.639Z,13.29
2022-10-06T23:12:31.833Z,13.25
2022-10-06T23:17:33.938Z,13.17
2022-10-06T23:22:35.910Z,13.54
2022-10-06T23:27:37.969Z,13.01
2022-10-06T23:32:40.945Z,13.29
2022-10-06T23:37:43.331Z,12.86
2022-10-06T23:42:45.601Z,12.91
2022-10-06T23:47:47.853Z,12.91
2022-10-06T23:52:50.020Z,12.84
2022-10-06T23:57:53.346Z,12.83
